<?xml version="1.0" encoding="UTF-8" standalone="no" ?>
<gpx xmlns="http://www.topografix.com/GPX/1/1" xmlns:xsi="http://www.w3.org/2001/XMLSchema-instance" xsi:schemaLocation="http://www.topografix.com/GPX/1/1 http://www.topografix.com/GPX/1/1/gpx.xsd" version="1.1" creator="VisuGPX - https://www.visugpx.com">
  <metadata>
    <name>Lanester - marais de la GODEN</name>
    <desc><![CDATA[Marche facile mais attention à la traversée de la D 194.]]></desc>
  </metadata>
  <trk>
    <name><![CDATA[Lanester Plessisl: 25 MAI 2016]]></name>
    <trkseg>
      <trkpt lat="47.76009" lon="-3.33682">
        <ele>28.98</ele>
        <time>2016-05-25T12:26:28Z</time>
      </trkpt>
      <trkpt lat="47.76012" lon="-3.33682">
        <ele>28.98</ele>
        <time>2016-05-25T12:26:50Z</time>
      </trkpt>
      <trkpt lat="47.76014" lon="-3.33681">
        <ele>28.98</ele>
        <time>2016-05-25T12:27:12Z</time>
      </trkpt>
      <trkpt lat="47.76012" lon="-3.33683">
        <ele>28.98</ele>
        <time>2016-05-25T12:27:37Z</time>
      </trkpt>
      <trkpt lat="47.76008" lon="-3.33686">
        <ele>28.98</ele>
        <time>2016-05-25T12:28:01Z</time>
      </trkpt>
      <trkpt lat="47.7601" lon="-3.33681">
        <ele>28.98</ele>
        <time>2016-05-25T12:28:28Z</time>
      </trkpt>
      <trkpt lat="47.76016" lon="-3.33682">
        <ele>28.98</ele>
        <time>2016-05-25T12:28:54Z</time>
      </trkpt>
      <trkpt lat="47.76008" lon="-3.33684">
        <ele>30.42</ele>
        <time>2016-05-25T12:29:22Z</time>
      </trkpt>
      <trkpt lat="47.76009" lon="-3.33679">
        <ele>30.9</ele>
        <time>2016-05-25T12:29:47Z</time>
      </trkpt>
      <trkpt lat="47.76009" lon="-3.33696">
        <ele>30.42</ele>
        <time>2016-05-25T12:30:14Z</time>
      </trkpt>
      <trkpt lat="47.76016" lon="-3.33689">
        <ele>30.9</ele>
        <time>2016-05-25T12:30:36Z</time>
      </trkpt>
      <trkpt lat="47.7602" lon="-3.33691">
        <ele>31.38</ele>
        <time>2016-05-25T12:31:05Z</time>
      </trkpt>
      <trkpt lat="47.76014" lon="-3.33687">
        <ele>30.9</ele>
        <time>2016-05-25T12:31:33Z</time>
      </trkpt>
      <trkpt lat="47.76014" lon="-3.33688">
        <ele>31.38</ele>
        <time>2016-05-25T12:32:02Z</time>
      </trkpt>
      <trkpt lat="47.76015" lon="-3.33686">
        <ele>31.38</ele>
        <time>2016-05-25T12:32:24Z</time>
      </trkpt>
      <trkpt lat="47.76017" lon="-3.33674">
        <ele>31.86</ele>
        <time>2016-05-25T12:32:51Z</time>
      </trkpt>
      <trkpt lat="47.76019" lon="-3.33661">
        <ele>30.9</ele>
        <time>2016-05-25T12:33:09Z</time>
      </trkpt>
      <trkpt lat="47.76022" lon="-3.33643">
        <ele>31.38</ele>
        <time>2016-05-25T12:33:28Z</time>
      </trkpt>
      <trkpt lat="47.76029" lon="-3.3363">
        <ele>31.38</ele>
        <time>2016-05-25T12:33:45Z</time>
      </trkpt>
      <trkpt lat="47.76032" lon="-3.33623">
        <ele>30.9</ele>
        <time>2016-05-25T12:33:53Z</time>
      </trkpt>
      <trkpt lat="47.76042" lon="-3.33608">
        <ele>31.86</ele>
        <time>2016-05-25T12:34:10Z</time>
      </trkpt>
      <trkpt lat="47.76047" lon="-3.33607">
        <ele>30.9</ele>
        <time>2016-05-25T12:34:17Z</time>
      </trkpt>
      <trkpt lat="47.76059" lon="-3.33606">
        <ele>31.38</ele>
        <time>2016-05-25T12:34:35Z</time>
      </trkpt>
      <trkpt lat="47.76074" lon="-3.33608">
        <ele>30.9</ele>
        <time>2016-05-25T12:34:54Z</time>
      </trkpt>
      <trkpt lat="47.76083" lon="-3.33615">
        <ele>30.9</ele>
        <time>2016-05-25T12:35:10Z</time>
      </trkpt>
      <trkpt lat="47.76095" lon="-3.33628">
        <ele>30.9</ele>
        <time>2016-05-25T12:35:27Z</time>
      </trkpt>
      <trkpt lat="47.76109" lon="-3.33633">
        <ele>30.42</ele>
        <time>2016-05-25T12:35:44Z</time>
      </trkpt>
      <trkpt lat="47.76116" lon="-3.33631">
        <ele>29.94</ele>
        <time>2016-05-25T12:36:05Z</time>
      </trkpt>
      <trkpt lat="47.76119" lon="-3.33628">
        <ele>29.94</ele>
        <time>2016-05-25T12:36:15Z</time>
      </trkpt>
      <trkpt lat="47.76117" lon="-3.33626">
        <ele>29.94</ele>
        <time>2016-05-25T12:36:17Z</time>
      </trkpt>
      <trkpt lat="47.76101" lon="-3.33619">
        <ele>30.42</ele>
        <time>2016-05-25T12:36:34Z</time>
      </trkpt>
      <trkpt lat="47.76075" lon="-3.33597">
        <ele>30.42</ele>
        <time>2016-05-25T12:36:55Z</time>
      </trkpt>
      <trkpt lat="47.76043" lon="-3.33593">
        <ele>30.42</ele>
        <time>2016-05-25T12:37:17Z</time>
      </trkpt>
      <trkpt lat="47.76026" lon="-3.33618">
        <ele>29.94</ele>
        <time>2016-05-25T12:37:34Z</time>
      </trkpt>
      <trkpt lat="47.76016" lon="-3.33646">
        <ele>29.94</ele>
        <time>2016-05-25T12:37:51Z</time>
      </trkpt>
      <trkpt lat="47.76014" lon="-3.33653">
        <ele>29.94</ele>
        <time>2016-05-25T12:37:55Z</time>
      </trkpt>
      <trkpt lat="47.76012" lon="-3.33678">
        <ele>29.94</ele>
        <time>2016-05-25T12:38:13Z</time>
      </trkpt>
      <trkpt lat="47.7601" lon="-3.337">
        <ele>29.94</ele>
        <time>2016-05-25T12:38:30Z</time>
      </trkpt>
      <trkpt lat="47.76011" lon="-3.337">
        <ele>30.42</ele>
        <time>2016-05-25T12:38:45Z</time>
      </trkpt>
      <trkpt lat="47.76012" lon="-3.33698">
        <ele>29.94</ele>
        <time>2016-05-25T12:38:46Z</time>
      </trkpt>
      <trkpt lat="47.76018" lon="-3.33674">
        <ele>29.46</ele>
        <time>2016-05-25T12:38:58Z</time>
      </trkpt>
      <trkpt lat="47.76023" lon="-3.33664">
        <ele>29.46</ele>
        <time>2016-05-25T12:39:06Z</time>
      </trkpt>
      <trkpt lat="47.76027" lon="-3.3364">
        <ele>29.94</ele>
        <time>2016-05-25T12:39:22Z</time>
      </trkpt>
      <trkpt lat="47.76039" lon="-3.33611">
        <ele>30.42</ele>
        <time>2016-05-25T12:39:42Z</time>
      </trkpt>
      <trkpt lat="47.76041" lon="-3.33611">
        <ele>29.94</ele>
        <time>2016-05-25T12:39:44Z</time>
      </trkpt>
      <trkpt lat="47.76048" lon="-3.33608">
        <ele>30.42</ele>
        <time>2016-05-25T12:39:50Z</time>
      </trkpt>
      <trkpt lat="47.76073" lon="-3.33615">
        <ele>30.42</ele>
        <time>2016-05-25T12:40:11Z</time>
      </trkpt>
      <trkpt lat="47.76089" lon="-3.33624">
        <ele>29.94</ele>
        <time>2016-05-25T12:40:25Z</time>
      </trkpt>
      <trkpt lat="47.76094" lon="-3.3363">
        <ele>30.42</ele>
        <time>2016-05-25T12:40:32Z</time>
      </trkpt>
      <trkpt lat="47.7611" lon="-3.33632">
        <ele>29.46</ele>
        <time>2016-05-25T12:40:46Z</time>
      </trkpt>
      <trkpt lat="47.76125" lon="-3.33633">
        <ele>28.98</ele>
        <time>2016-05-25T12:41:04Z</time>
      </trkpt>
      <trkpt lat="47.76133" lon="-3.33637">
        <ele>28.98</ele>
        <time>2016-05-25T12:41:16Z</time>
      </trkpt>
      <trkpt lat="47.7614" lon="-3.33656">
        <ele>28.98</ele>
        <time>2016-05-25T12:41:31Z</time>
      </trkpt>
      <trkpt lat="47.76156" lon="-3.33666">
        <ele>29.46</ele>
        <time>2016-05-25T12:41:47Z</time>
      </trkpt>
      <trkpt lat="47.76157" lon="-3.33665">
        <ele>28.98</ele>
        <time>2016-05-25T12:41:49Z</time>
      </trkpt>
      <trkpt lat="47.76172" lon="-3.33655">
        <ele>29.94</ele>
        <time>2016-05-25T12:42:04Z</time>
      </trkpt>
      <trkpt lat="47.76175" lon="-3.33651">
        <ele>29.94</ele>
        <time>2016-05-25T12:42:08Z</time>
      </trkpt>
      <trkpt lat="47.76181" lon="-3.33639">
        <ele>29.94</ele>
        <time>2016-05-25T12:42:23Z</time>
      </trkpt>
      <trkpt lat="47.76185" lon="-3.33619">
        <ele>29.46</ele>
        <time>2016-05-25T12:42:39Z</time>
      </trkpt>
      <trkpt lat="47.76186" lon="-3.3359">
        <ele>28.98</ele>
        <time>2016-05-25T12:42:58Z</time>
      </trkpt>
      <trkpt lat="47.76194" lon="-3.33569">
        <ele>29.46</ele>
        <time>2016-05-25T12:43:16Z</time>
      </trkpt>
      <trkpt lat="47.76187" lon="-3.33548">
        <ele>28.98</ele>
        <time>2016-05-25T12:43:37Z</time>
      </trkpt>
      <trkpt lat="47.76185" lon="-3.3355">
        <ele>28.02</ele>
        <time>2016-05-25T12:43:59Z</time>
      </trkpt>
      <trkpt lat="47.76186" lon="-3.3355">
        <ele>13.6</ele>
        <time>2016-05-25T12:44:02Z</time>
      </trkpt>
      <trkpt lat="47.76186" lon="-3.33548">
        <ele>28.98</ele>
        <time>2016-05-25T12:44:04Z</time>
      </trkpt>
      <trkpt lat="47.76192" lon="-3.33526">
        <ele>28.02</ele>
        <time>2016-05-25T12:44:21Z</time>
      </trkpt>
      <trkpt lat="47.76185" lon="-3.33503">
        <ele>28.02</ele>
        <time>2016-05-25T12:44:39Z</time>
      </trkpt>
      <trkpt lat="47.76197" lon="-3.33479">
        <ele>28.98</ele>
        <time>2016-05-25T12:45:00Z</time>
      </trkpt>
      <trkpt lat="47.76205" lon="-3.3344">
        <ele>28.5</ele>
        <time>2016-05-25T12:45:19Z</time>
      </trkpt>
      <trkpt lat="47.76206" lon="-3.33438">
        <ele>28.5</ele>
        <time>2016-05-25T12:45:20Z</time>
      </trkpt>
      <trkpt lat="47.76208" lon="-3.33426">
        <ele>28.98</ele>
        <time>2016-05-25T12:45:26Z</time>
      </trkpt>
      <trkpt lat="47.76215" lon="-3.33403">
        <ele>28.5</ele>
        <time>2016-05-25T12:45:44Z</time>
      </trkpt>
      <trkpt lat="47.76215" lon="-3.33369">
        <ele>28.02</ele>
        <time>2016-05-25T12:46:04Z</time>
      </trkpt>
      <trkpt lat="47.76199" lon="-3.33349">
        <ele>27.05</ele>
        <time>2016-05-25T12:46:27Z</time>
      </trkpt>
      <trkpt lat="47.7618" lon="-3.33325">
        <ele>25.61</ele>
        <time>2016-05-25T12:46:50Z</time>
      </trkpt>
      <trkpt lat="47.7617" lon="-3.33307">
        <ele>24.65</ele>
        <time>2016-05-25T12:47:09Z</time>
      </trkpt>
      <trkpt lat="47.76161" lon="-3.33284">
        <ele>22.73</ele>
        <time>2016-05-25T12:47:33Z</time>
      </trkpt>
      <trkpt lat="47.76142" lon="-3.3326">
        <ele>21.29</ele>
        <time>2016-05-25T12:47:56Z</time>
      </trkpt>
      <trkpt lat="47.76136" lon="-3.33246">
        <ele>20.81</ele>
        <time>2016-05-25T12:48:20Z</time>
      </trkpt>
      <trkpt lat="47.7613" lon="-3.33233">
        <ele>21.77</ele>
        <time>2016-05-25T12:48:40Z</time>
      </trkpt>
      <trkpt lat="47.76128" lon="-3.33212">
        <ele>22.25</ele>
        <time>2016-05-25T12:48:55Z</time>
      </trkpt>
      <trkpt lat="47.76128" lon="-3.33204">
        <ele>22.25</ele>
        <time>2016-05-25T12:49:04Z</time>
      </trkpt>
      <trkpt lat="47.76127" lon="-3.33182">
        <ele>21.77</ele>
        <time>2016-05-25T12:49:22Z</time>
      </trkpt>
      <trkpt lat="47.76129" lon="-3.33163">
        <ele>20.81</ele>
        <time>2016-05-25T12:49:37Z</time>
      </trkpt>
      <trkpt lat="47.7613" lon="-3.33149">
        <ele>20.32</ele>
        <time>2016-05-25T12:49:49Z</time>
      </trkpt>
      <trkpt lat="47.76125" lon="-3.33132">
        <ele>20.81</ele>
        <time>2016-05-25T12:50:06Z</time>
      </trkpt>
      <trkpt lat="47.76124" lon="-3.3312">
        <ele>20.32</ele>
        <time>2016-05-25T12:50:21Z</time>
      </trkpt>
      <trkpt lat="47.76115" lon="-3.33105">
        <ele>19.84</ele>
        <time>2016-05-25T12:50:35Z</time>
      </trkpt>
      <trkpt lat="47.76112" lon="-3.33092">
        <ele>19.84</ele>
        <time>2016-05-25T12:50:50Z</time>
      </trkpt>
      <trkpt lat="47.76114" lon="-3.33075">
        <ele>19.36</ele>
        <time>2016-05-25T12:51:06Z</time>
      </trkpt>
      <trkpt lat="47.76116" lon="-3.33055">
        <ele>18.88</ele>
        <time>2016-05-25T12:51:22Z</time>
      </trkpt>
      <trkpt lat="47.76117" lon="-3.33051">
        <ele>18.88</ele>
        <time>2016-05-25T12:51:25Z</time>
      </trkpt>
      <trkpt lat="47.76112" lon="-3.33029">
        <ele>17.92</ele>
        <time>2016-05-25T12:51:43Z</time>
      </trkpt>
      <trkpt lat="47.76108" lon="-3.33008">
        <ele>17.44</ele>
        <time>2016-05-25T12:52:01Z</time>
      </trkpt>
      <trkpt lat="47.76111" lon="-3.32984">
        <ele>17.44</ele>
        <time>2016-05-25T12:52:19Z</time>
      </trkpt>
      <trkpt lat="47.76111" lon="-3.3296">
        <ele>16.96</ele>
        <time>2016-05-25T12:52:36Z</time>
      </trkpt>
      <trkpt lat="47.76112" lon="-3.32942">
        <ele>16.48</ele>
        <time>2016-05-25T12:52:51Z</time>
      </trkpt>
      <trkpt lat="47.76121" lon="-3.3293">
        <ele>16</ele>
        <time>2016-05-25T12:53:07Z</time>
      </trkpt>
      <trkpt lat="47.76135" lon="-3.32912">
        <ele>16.48</ele>
        <time>2016-05-25T12:53:25Z</time>
      </trkpt>
      <trkpt lat="47.76136" lon="-3.32912">
        <ele>16.48</ele>
        <time>2016-05-25T12:53:26Z</time>
      </trkpt>
      <trkpt lat="47.7615" lon="-3.32901">
        <ele>16</ele>
        <time>2016-05-25T12:53:42Z</time>
      </trkpt>
      <trkpt lat="47.76162" lon="-3.32891">
        <ele>16</ele>
        <time>2016-05-25T12:53:58Z</time>
      </trkpt>
      <trkpt lat="47.76171" lon="-3.3288">
        <ele>16.48</ele>
        <time>2016-05-25T12:54:11Z</time>
      </trkpt>
      <trkpt lat="47.76176" lon="-3.32861">
        <ele>16</ele>
        <time>2016-05-25T12:54:28Z</time>
      </trkpt>
      <trkpt lat="47.76173" lon="-3.32839">
        <ele>16</ele>
        <time>2016-05-25T12:54:43Z</time>
      </trkpt>
      <trkpt lat="47.76179" lon="-3.32819">
        <ele>16</ele>
        <time>2016-05-25T12:54:59Z</time>
      </trkpt>
      <trkpt lat="47.7618" lon="-3.32802">
        <ele>16.48</ele>
        <time>2016-05-25T12:55:13Z</time>
      </trkpt>
      <trkpt lat="47.76179" lon="-3.32781">
        <ele>16.48</ele>
        <time>2016-05-25T12:55:31Z</time>
      </trkpt>
      <trkpt lat="47.76179" lon="-3.32764">
        <ele>16.96</ele>
        <time>2016-05-25T12:55:47Z</time>
      </trkpt>
      <trkpt lat="47.76185" lon="-3.32757">
        <ele>17.44</ele>
        <time>2016-05-25T12:56:04Z</time>
      </trkpt>
      <trkpt lat="47.76187" lon="-3.32753">
        <ele>16.96</ele>
        <time>2016-05-25T12:56:21Z</time>
      </trkpt>
      <trkpt lat="47.76184" lon="-3.32743">
        <ele>17.44</ele>
        <time>2016-05-25T12:56:37Z</time>
      </trkpt>
      <trkpt lat="47.76196" lon="-3.32745">
        <ele>16</ele>
        <time>2016-05-25T12:56:54Z</time>
      </trkpt>
      <trkpt lat="47.76199" lon="-3.32747">
        <ele>18.88</ele>
        <time>2016-05-25T12:57:01Z</time>
      </trkpt>
      <trkpt lat="47.76205" lon="-3.32748">
        <ele>18.4</ele>
        <time>2016-05-25T12:57:13Z</time>
      </trkpt>
      <trkpt lat="47.76214" lon="-3.32751">
        <ele>18.88</ele>
        <time>2016-05-25T12:57:28Z</time>
      </trkpt>
      <trkpt lat="47.76229" lon="-3.32743">
        <ele>18.88</ele>
        <time>2016-05-25T12:57:44Z</time>
      </trkpt>
      <trkpt lat="47.76242" lon="-3.32743">
        <ele>19.36</ele>
        <time>2016-05-25T12:58:03Z</time>
      </trkpt>
      <trkpt lat="47.76256" lon="-3.32734">
        <ele>19.36</ele>
        <time>2016-05-25T12:58:21Z</time>
      </trkpt>
      <trkpt lat="47.76271" lon="-3.32732">
        <ele>18.88</ele>
        <time>2016-05-25T12:58:39Z</time>
      </trkpt>
      <trkpt lat="47.76286" lon="-3.32729">
        <ele>17.44</ele>
        <time>2016-05-25T12:58:56Z</time>
      </trkpt>
      <trkpt lat="47.76303" lon="-3.32722">
        <ele>16.96</ele>
        <time>2016-05-25T12:59:14Z</time>
      </trkpt>
      <trkpt lat="47.76317" lon="-3.3271">
        <ele>17.44</ele>
        <time>2016-05-25T12:59:35Z</time>
      </trkpt>
      <trkpt lat="47.76334" lon="-3.32697">
        <ele>18.4</ele>
        <time>2016-05-25T12:59:55Z</time>
      </trkpt>
      <trkpt lat="47.7635" lon="-3.32689">
        <ele>18.88</ele>
        <time>2016-05-25T13:00:12Z</time>
      </trkpt>
      <trkpt lat="47.76359" lon="-3.32681">
        <ele>16.96</ele>
        <time>2016-05-25T13:00:27Z</time>
      </trkpt>
      <trkpt lat="47.76372" lon="-3.32671">
        <ele>17.44</ele>
        <time>2016-05-25T13:00:46Z</time>
      </trkpt>
      <trkpt lat="47.76382" lon="-3.32662">
        <ele>20.81</ele>
        <time>2016-05-25T13:01:01Z</time>
      </trkpt>
      <trkpt lat="47.7639" lon="-3.32651">
        <ele>19.84</ele>
        <time>2016-05-25T13:01:18Z</time>
      </trkpt>
      <trkpt lat="47.76401" lon="-3.32648">
        <ele>21.29</ele>
        <time>2016-05-25T13:01:35Z</time>
      </trkpt>
      <trkpt lat="47.76416" lon="-3.32639">
        <ele>20.81</ele>
        <time>2016-05-25T13:01:52Z</time>
      </trkpt>
      <trkpt lat="47.76423" lon="-3.32635">
        <ele>20.81</ele>
        <time>2016-05-25T13:02:01Z</time>
      </trkpt>
      <trkpt lat="47.7644" lon="-3.32636">
        <ele>20.32</ele>
        <time>2016-05-25T13:02:19Z</time>
      </trkpt>
      <trkpt lat="47.76453" lon="-3.32633">
        <ele>20.81</ele>
        <time>2016-05-25T13:02:38Z</time>
      </trkpt>
      <trkpt lat="47.76468" lon="-3.32631">
        <ele>20.81</ele>
        <time>2016-05-25T13:02:55Z</time>
      </trkpt>
      <trkpt lat="47.76484" lon="-3.32641">
        <ele>21.77</ele>
        <time>2016-05-25T13:03:14Z</time>
      </trkpt>
      <trkpt lat="47.76496" lon="-3.32655">
        <ele>21.29</ele>
        <time>2016-05-25T13:03:31Z</time>
      </trkpt>
      <trkpt lat="47.76507" lon="-3.32667">
        <ele>23.21</ele>
        <time>2016-05-25T13:03:48Z</time>
      </trkpt>
      <trkpt lat="47.76516" lon="-3.32683">
        <ele>22.73</ele>
        <time>2016-05-25T13:04:08Z</time>
      </trkpt>
      <trkpt lat="47.76531" lon="-3.327">
        <ele>22.25</ele>
        <time>2016-05-25T13:04:27Z</time>
      </trkpt>
      <trkpt lat="47.76541" lon="-3.32721">
        <ele>19.84</ele>
        <time>2016-05-25T13:04:46Z</time>
      </trkpt>
      <trkpt lat="47.76562" lon="-3.32721">
        <ele>17.92</ele>
        <time>2016-05-25T13:05:04Z</time>
      </trkpt>
      <trkpt lat="47.76581" lon="-3.32726">
        <ele>15.52</ele>
        <time>2016-05-25T13:05:28Z</time>
      </trkpt>
      <trkpt lat="47.7659" lon="-3.32732">
        <ele>15.04</ele>
        <time>2016-05-25T13:05:37Z</time>
      </trkpt>
      <trkpt lat="47.76605" lon="-3.32738">
        <ele>14.08</ele>
        <time>2016-05-25T13:05:55Z</time>
      </trkpt>
      <trkpt lat="47.76617" lon="-3.32739">
        <ele>14.08</ele>
        <time>2016-05-25T13:06:07Z</time>
      </trkpt>
      <trkpt lat="47.76622" lon="-3.32738">
        <ele>13.6</ele>
        <time>2016-05-25T13:06:20Z</time>
      </trkpt>
      <trkpt lat="47.76617" lon="-3.32727">
        <ele>13.6</ele>
        <time>2016-05-25T13:06:38Z</time>
      </trkpt>
      <trkpt lat="47.76618" lon="-3.32733">
        <ele>13.12</ele>
        <time>2016-05-25T13:06:49Z</time>
      </trkpt>
      <trkpt lat="47.76621" lon="-3.32734">
        <ele>13.12</ele>
        <time>2016-05-25T13:06:52Z</time>
      </trkpt>
      <trkpt lat="47.7663" lon="-3.32723">
        <ele>13.12</ele>
        <time>2016-05-25T13:07:06Z</time>
      </trkpt>
      <trkpt lat="47.76633" lon="-3.32711">
        <ele>13.12</ele>
        <time>2016-05-25T13:07:19Z</time>
      </trkpt>
      <trkpt lat="47.76637" lon="-3.32699">
        <ele>12.63</ele>
        <time>2016-05-25T13:07:36Z</time>
      </trkpt>
      <trkpt lat="47.76649" lon="-3.32696">
        <ele>13.12</ele>
        <time>2016-05-25T13:07:53Z</time>
      </trkpt>
      <trkpt lat="47.76657" lon="-3.32699">
        <ele>12.15</ele>
        <time>2016-05-25T13:08:10Z</time>
      </trkpt>
      <trkpt lat="47.76668" lon="-3.32705">
        <ele>12.63</ele>
        <time>2016-05-25T13:08:24Z</time>
      </trkpt>
      <trkpt lat="47.76672" lon="-3.32712">
        <ele>12.15</ele>
        <time>2016-05-25T13:08:34Z</time>
      </trkpt>
      <trkpt lat="47.76687" lon="-3.3272">
        <ele>11.67</ele>
        <time>2016-05-25T13:08:50Z</time>
      </trkpt>
      <trkpt lat="47.76694" lon="-3.32725">
        <ele>11.19</ele>
        <time>2016-05-25T13:08:59Z</time>
      </trkpt>
      <trkpt lat="47.76705" lon="-3.32738">
        <ele>11.19</ele>
        <time>2016-05-25T13:09:15Z</time>
      </trkpt>
      <trkpt lat="47.76718" lon="-3.32752">
        <ele>11.19</ele>
        <time>2016-05-25T13:09:31Z</time>
      </trkpt>
      <trkpt lat="47.76729" lon="-3.32752">
        <ele>11.67</ele>
        <time>2016-05-25T13:09:42Z</time>
      </trkpt>
      <trkpt lat="47.76746" lon="-3.32744">
        <ele>10.71</ele>
        <time>2016-05-25T13:10:02Z</time>
      </trkpt>
      <trkpt lat="47.76751" lon="-3.32742">
        <ele>11.67</ele>
        <time>2016-05-25T13:10:07Z</time>
      </trkpt>
      <trkpt lat="47.76763" lon="-3.32743">
        <ele>11.67</ele>
        <time>2016-05-25T13:10:22Z</time>
      </trkpt>
      <trkpt lat="47.76773" lon="-3.32722">
        <ele>11.19</ele>
        <time>2016-05-25T13:10:36Z</time>
      </trkpt>
      <trkpt lat="47.76782" lon="-3.32706">
        <ele>11.67</ele>
        <time>2016-05-25T13:10:50Z</time>
      </trkpt>
      <trkpt lat="47.76792" lon="-3.32693">
        <ele>11.19</ele>
        <time>2016-05-25T13:11:07Z</time>
      </trkpt>
      <trkpt lat="47.76805" lon="-3.32694">
        <ele>11.19</ele>
        <time>2016-05-25T13:11:25Z</time>
      </trkpt>
      <trkpt lat="47.7681" lon="-3.32702">
        <ele>11.19</ele>
        <time>2016-05-25T13:11:34Z</time>
      </trkpt>
      <trkpt lat="47.76821" lon="-3.32716">
        <ele>11.19</ele>
        <time>2016-05-25T13:11:51Z</time>
      </trkpt>
      <trkpt lat="47.7683" lon="-3.32727">
        <ele>11.19</ele>
        <time>2016-05-25T13:12:06Z</time>
      </trkpt>
      <trkpt lat="47.7685" lon="-3.32733">
        <ele>11.67</ele>
        <time>2016-05-25T13:12:22Z</time>
      </trkpt>
      <trkpt lat="47.76862" lon="-3.32717">
        <ele>12.15</ele>
        <time>2016-05-25T13:12:40Z</time>
      </trkpt>
      <trkpt lat="47.76879" lon="-3.32696">
        <ele>12.63</ele>
        <time>2016-05-25T13:13:03Z</time>
      </trkpt>
      <trkpt lat="47.76889" lon="-3.32671">
        <ele>12.63</ele>
        <time>2016-05-25T13:13:19Z</time>
      </trkpt>
      <trkpt lat="47.76898" lon="-3.32656">
        <ele>12.15</ele>
        <time>2016-05-25T13:13:36Z</time>
      </trkpt>
      <trkpt lat="47.7691" lon="-3.32644">
        <ele>12.63</ele>
        <time>2016-05-25T13:13:55Z</time>
      </trkpt>
      <trkpt lat="47.76929" lon="-3.32645">
        <ele>12.15</ele>
        <time>2016-05-25T13:14:16Z</time>
      </trkpt>
      <trkpt lat="47.76946" lon="-3.32653">
        <ele>11.67</ele>
        <time>2016-05-25T13:14:34Z</time>
      </trkpt>
      <trkpt lat="47.76958" lon="-3.32659">
        <ele>11.67</ele>
        <time>2016-05-25T13:14:49Z</time>
      </trkpt>
      <trkpt lat="47.76969" lon="-3.32652">
        <ele>11.19</ele>
        <time>2016-05-25T13:14:57Z</time>
      </trkpt>
      <trkpt lat="47.76988" lon="-3.32646">
        <ele>11.67</ele>
        <time>2016-05-25T13:15:17Z</time>
      </trkpt>
      <trkpt lat="47.77001" lon="-3.32647">
        <ele>12.15</ele>
        <time>2016-05-25T13:15:29Z</time>
      </trkpt>
      <trkpt lat="47.77006" lon="-3.32661">
        <ele>12.63</ele>
        <time>2016-05-25T13:15:48Z</time>
      </trkpt>
      <trkpt lat="47.77004" lon="-3.32665">
        <ele>13.12</ele>
        <time>2016-05-25T13:15:53Z</time>
      </trkpt>
      <trkpt lat="47.77005" lon="-3.3269">
        <ele>13.12</ele>
        <time>2016-05-25T13:16:11Z</time>
      </trkpt>
      <trkpt lat="47.77012" lon="-3.32717">
        <ele>12.15</ele>
        <time>2016-05-25T13:16:29Z</time>
      </trkpt>
      <trkpt lat="47.77013" lon="-3.32735">
        <ele>11.19</ele>
        <time>2016-05-25T13:16:45Z</time>
      </trkpt>
      <trkpt lat="47.77014" lon="-3.32745">
        <ele>12.15</ele>
        <time>2016-05-25T13:17:15Z</time>
      </trkpt>
      <trkpt lat="47.77013" lon="-3.32748">
        <ele>11.67</ele>
        <time>2016-05-25T13:17:40Z</time>
      </trkpt>
      <trkpt lat="47.77013" lon="-3.3274">
        <ele>11.67</ele>
        <time>2016-05-25T13:18:12Z</time>
      </trkpt>
      <trkpt lat="47.77008" lon="-3.32764">
        <ele>12.15</ele>
        <time>2016-05-25T13:18:29Z</time>
      </trkpt>
      <trkpt lat="47.77008" lon="-3.32773">
        <ele>11.67</ele>
        <time>2016-05-25T13:18:34Z</time>
      </trkpt>
      <trkpt lat="47.77005" lon="-3.3279">
        <ele>10.71</ele>
        <time>2016-05-25T13:18:50Z</time>
      </trkpt>
      <trkpt lat="47.76999" lon="-3.32809">
        <ele>11.67</ele>
        <time>2016-05-25T13:19:05Z</time>
      </trkpt>
      <trkpt lat="47.77005" lon="-3.32838">
        <ele>11.67</ele>
        <time>2016-05-25T13:19:23Z</time>
      </trkpt>
      <trkpt lat="47.77007" lon="-3.32843">
        <ele>11.67</ele>
        <time>2016-05-25T13:19:27Z</time>
      </trkpt>
      <trkpt lat="47.77014" lon="-3.32863">
        <ele>12.15</ele>
        <time>2016-05-25T13:19:44Z</time>
      </trkpt>
      <trkpt lat="47.7702" lon="-3.32881">
        <ele>11.67</ele>
        <time>2016-05-25T13:19:56Z</time>
      </trkpt>
      <trkpt lat="47.77032" lon="-3.329">
        <ele>12.15</ele>
        <time>2016-05-25T13:20:12Z</time>
      </trkpt>
      <trkpt lat="47.7704" lon="-3.32927">
        <ele>11.67</ele>
        <time>2016-05-25T13:20:31Z</time>
      </trkpt>
      <trkpt lat="47.7705" lon="-3.32951">
        <ele>11.67</ele>
        <time>2016-05-25T13:20:49Z</time>
      </trkpt>
      <trkpt lat="47.77057" lon="-3.32975">
        <ele>11.67</ele>
        <time>2016-05-25T13:21:07Z</time>
      </trkpt>
      <trkpt lat="47.77063" lon="-3.32997">
        <ele>11.67</ele>
        <time>2016-05-25T13:21:23Z</time>
      </trkpt>
      <trkpt lat="47.77077" lon="-3.33012">
        <ele>12.63</ele>
        <time>2016-05-25T13:21:39Z</time>
      </trkpt>
      <trkpt lat="47.77082" lon="-3.33015">
        <ele>12.15</ele>
        <time>2016-05-25T13:21:44Z</time>
      </trkpt>
      <trkpt lat="47.77096" lon="-3.32999">
        <ele>11.67</ele>
        <time>2016-05-25T13:22:02Z</time>
      </trkpt>
      <trkpt lat="47.771" lon="-3.32985">
        <ele>12.15</ele>
        <time>2016-05-25T13:22:19Z</time>
      </trkpt>
      <trkpt lat="47.771" lon="-3.32986">
        <ele>12.15</ele>
        <time>2016-05-25T13:22:27Z</time>
      </trkpt>
      <trkpt lat="47.77102" lon="-3.3298">
        <ele>12.15</ele>
        <time>2016-05-25T13:22:32Z</time>
      </trkpt>
      <trkpt lat="47.77104" lon="-3.32959">
        <ele>12.63</ele>
        <time>2016-05-25T13:22:50Z</time>
      </trkpt>
      <trkpt lat="47.77106" lon="-3.32942">
        <ele>12.63</ele>
        <time>2016-05-25T13:23:05Z</time>
      </trkpt>
      <trkpt lat="47.77113" lon="-3.32921">
        <ele>12.63</ele>
        <time>2016-05-25T13:23:24Z</time>
      </trkpt>
      <trkpt lat="47.77115" lon="-3.32919">
        <ele>12.63</ele>
        <time>2016-05-25T13:23:26Z</time>
      </trkpt>
      <trkpt lat="47.77128" lon="-3.32901">
        <ele>11.67</ele>
        <time>2016-05-25T13:23:45Z</time>
      </trkpt>
      <trkpt lat="47.77144" lon="-3.32888">
        <ele>10.71</ele>
        <time>2016-05-25T13:24:03Z</time>
      </trkpt>
      <trkpt lat="47.77161" lon="-3.32887">
        <ele>10.71</ele>
        <time>2016-05-25T13:24:20Z</time>
      </trkpt>
      <trkpt lat="47.77178" lon="-3.32885">
        <ele>11.19</ele>
        <time>2016-05-25T13:24:37Z</time>
      </trkpt>
      <trkpt lat="47.77192" lon="-3.3288">
        <ele>11.67</ele>
        <time>2016-05-25T13:24:52Z</time>
      </trkpt>
      <trkpt lat="47.77206" lon="-3.3288">
        <ele>12.15</ele>
        <time>2016-05-25T13:25:07Z</time>
      </trkpt>
      <trkpt lat="47.77222" lon="-3.32882">
        <ele>11.67</ele>
        <time>2016-05-25T13:25:23Z</time>
      </trkpt>
      <trkpt lat="47.77239" lon="-3.32888">
        <ele>11.19</ele>
        <time>2016-05-25T13:25:39Z</time>
      </trkpt>
      <trkpt lat="47.77251" lon="-3.32884">
        <ele>11.67</ele>
        <time>2016-05-25T13:25:53Z</time>
      </trkpt>
      <trkpt lat="47.77255" lon="-3.32879">
        <ele>11.67</ele>
        <time>2016-05-25T13:26:09Z</time>
      </trkpt>
      <trkpt lat="47.77261" lon="-3.32877">
        <ele>11.19</ele>
        <time>2016-05-25T13:26:29Z</time>
      </trkpt>
      <trkpt lat="47.77273" lon="-3.32864">
        <ele>10.23</ele>
        <time>2016-05-25T13:26:46Z</time>
      </trkpt>
      <trkpt lat="47.7728" lon="-3.32848">
        <ele>9.75</ele>
        <time>2016-05-25T13:27:01Z</time>
      </trkpt>
      <trkpt lat="47.77295" lon="-3.32843">
        <ele>8.31</ele>
        <time>2016-05-25T13:27:20Z</time>
      </trkpt>
      <trkpt lat="47.77295" lon="-3.32843">
        <ele>12.15</ele>
        <time>2016-05-25T13:27:21Z</time>
      </trkpt>
      <trkpt lat="47.77296" lon="-3.32841">
        <ele>8.79</ele>
        <time>2016-05-25T13:27:23Z</time>
      </trkpt>
      <trkpt lat="47.773" lon="-3.32835">
        <ele>10.23</ele>
        <time>2016-05-25T13:27:31Z</time>
      </trkpt>
      <trkpt lat="47.77315" lon="-3.32834">
        <ele>10.71</ele>
        <time>2016-05-25T13:27:48Z</time>
      </trkpt>
      <trkpt lat="47.77331" lon="-3.32818">
        <ele>12.15</ele>
        <time>2016-05-25T13:28:05Z</time>
      </trkpt>
      <trkpt lat="47.77333" lon="-3.32819">
        <ele>13.12</ele>
        <time>2016-05-25T13:28:08Z</time>
      </trkpt>
      <trkpt lat="47.77343" lon="-3.32829">
        <ele>13.12</ele>
        <time>2016-05-25T13:28:25Z</time>
      </trkpt>
      <trkpt lat="47.77359" lon="-3.32828">
        <ele>15.52</ele>
        <time>2016-05-25T13:28:41Z</time>
      </trkpt>
      <trkpt lat="47.77367" lon="-3.32828">
        <ele>16</ele>
        <time>2016-05-25T13:28:51Z</time>
      </trkpt>
      <trkpt lat="47.77379" lon="-3.32826">
        <ele>15.52</ele>
        <time>2016-05-25T13:29:04Z</time>
      </trkpt>
      <trkpt lat="47.77394" lon="-3.3283">
        <ele>15.52</ele>
        <time>2016-05-25T13:29:21Z</time>
      </trkpt>
      <trkpt lat="47.774" lon="-3.32832">
        <ele>15.04</ele>
        <time>2016-05-25T13:29:27Z</time>
      </trkpt>
      <trkpt lat="47.77415" lon="-3.32834">
        <ele>14.56</ele>
        <time>2016-05-25T13:29:42Z</time>
      </trkpt>
      <trkpt lat="47.77426" lon="-3.32835">
        <ele>14.56</ele>
        <time>2016-05-25T13:29:54Z</time>
      </trkpt>
      <trkpt lat="47.77438" lon="-3.32829">
        <ele>13.6</ele>
        <time>2016-05-25T13:30:12Z</time>
      </trkpt>
      <trkpt lat="47.77457" lon="-3.32829">
        <ele>13.12</ele>
        <time>2016-05-25T13:30:30Z</time>
      </trkpt>
      <trkpt lat="47.77458" lon="-3.32829">
        <ele>12.63</ele>
        <time>2016-05-25T13:30:31Z</time>
      </trkpt>
      <trkpt lat="47.77473" lon="-3.32827">
        <ele>11.67</ele>
        <time>2016-05-25T13:30:45Z</time>
      </trkpt>
      <trkpt lat="47.77483" lon="-3.32804">
        <ele>10.71</ele>
        <time>2016-05-25T13:31:00Z</time>
      </trkpt>
      <trkpt lat="47.77497" lon="-3.32793">
        <ele>10.23</ele>
        <time>2016-05-25T13:31:17Z</time>
      </trkpt>
      <trkpt lat="47.77498" lon="-3.3279">
        <ele>10.23</ele>
        <time>2016-05-25T13:31:19Z</time>
      </trkpt>
      <trkpt lat="47.77507" lon="-3.32768">
        <ele>10.23</ele>
        <time>2016-05-25T13:31:32Z</time>
      </trkpt>
      <trkpt lat="47.77513" lon="-3.32749">
        <ele>9.75</ele>
        <time>2016-05-25T13:31:40Z</time>
      </trkpt>
      <trkpt lat="47.77516" lon="-3.32744">
        <ele>9.27</ele>
        <time>2016-05-25T13:31:46Z</time>
      </trkpt>
      <trkpt lat="47.7753" lon="-3.32721">
        <ele>10.23</ele>
        <time>2016-05-25T13:32:07Z</time>
      </trkpt>
      <trkpt lat="47.77532" lon="-3.32713">
        <ele>9.75</ele>
        <time>2016-05-25T13:32:13Z</time>
      </trkpt>
      <trkpt lat="47.77539" lon="-3.32692">
        <ele>9.75</ele>
        <time>2016-05-25T13:32:30Z</time>
      </trkpt>
      <trkpt lat="47.77541" lon="-3.32677">
        <ele>9.75</ele>
        <time>2016-05-25T13:32:40Z</time>
      </trkpt>
      <trkpt lat="47.77544" lon="-3.32667">
        <ele>9.75</ele>
        <time>2016-05-25T13:32:56Z</time>
      </trkpt>
      <trkpt lat="47.77546" lon="-3.32664">
        <ele>9.75</ele>
        <time>2016-05-25T13:33:12Z</time>
      </trkpt>
      <trkpt lat="47.77549" lon="-3.3266">
        <ele>9.27</ele>
        <time>2016-05-25T13:33:44Z</time>
      </trkpt>
      <trkpt lat="47.77549" lon="-3.32659">
        <ele>8.79</ele>
        <time>2016-05-25T13:33:45Z</time>
      </trkpt>
      <trkpt lat="47.77546" lon="-3.32647">
        <ele>9.75</ele>
        <time>2016-05-25T13:34:04Z</time>
      </trkpt>
      <trkpt lat="47.77537" lon="-3.32637">
        <ele>10.23</ele>
        <time>2016-05-25T13:34:20Z</time>
      </trkpt>
      <trkpt lat="47.77525" lon="-3.3262">
        <ele>9.75</ele>
        <time>2016-05-25T13:34:37Z</time>
      </trkpt>
      <trkpt lat="47.77512" lon="-3.32604">
        <ele>10.23</ele>
        <time>2016-05-25T13:34:57Z</time>
      </trkpt>
      <trkpt lat="47.77495" lon="-3.32587">
        <ele>10.71</ele>
        <time>2016-05-25T13:35:16Z</time>
      </trkpt>
      <trkpt lat="47.77478" lon="-3.32573">
        <ele>9.75</ele>
        <time>2016-05-25T13:35:36Z</time>
      </trkpt>
      <trkpt lat="47.77464" lon="-3.32555">
        <ele>10.23</ele>
        <time>2016-05-25T13:35:54Z</time>
      </trkpt>
      <trkpt lat="47.7745" lon="-3.32537">
        <ele>10.23</ele>
        <time>2016-05-25T13:36:11Z</time>
      </trkpt>
      <trkpt lat="47.77433" lon="-3.32522">
        <ele>10.71</ele>
        <time>2016-05-25T13:36:29Z</time>
      </trkpt>
      <trkpt lat="47.77421" lon="-3.32516">
        <ele>9.75</ele>
        <time>2016-05-25T13:36:44Z</time>
      </trkpt>
      <trkpt lat="47.77411" lon="-3.3251">
        <ele>9.75</ele>
        <time>2016-05-25T13:37:00Z</time>
      </trkpt>
      <trkpt lat="47.77397" lon="-3.32511">
        <ele>9.75</ele>
        <time>2016-05-25T13:37:17Z</time>
      </trkpt>
      <trkpt lat="47.77384" lon="-3.32501">
        <ele>9.75</ele>
        <time>2016-05-25T13:37:37Z</time>
      </trkpt>
      <trkpt lat="47.77374" lon="-3.32483">
        <ele>9.75</ele>
        <time>2016-05-25T13:37:55Z</time>
      </trkpt>
      <trkpt lat="47.77374" lon="-3.3246">
        <ele>9.75</ele>
        <time>2016-05-25T13:38:14Z</time>
      </trkpt>
      <trkpt lat="47.77375" lon="-3.32434">
        <ele>9.75</ele>
        <time>2016-05-25T13:38:35Z</time>
      </trkpt>
      <trkpt lat="47.7737" lon="-3.32398">
        <ele>9.75</ele>
        <time>2016-05-25T13:38:57Z</time>
      </trkpt>
      <trkpt lat="47.77353" lon="-3.32392">
        <ele>9.27</ele>
        <time>2016-05-25T13:39:14Z</time>
      </trkpt>
      <trkpt lat="47.77349" lon="-3.32395">
        <ele>8.79</ele>
        <time>2016-05-25T13:39:21Z</time>
      </trkpt>
      <trkpt lat="47.7734" lon="-3.32402">
        <ele>9.27</ele>
        <time>2016-05-25T13:39:36Z</time>
      </trkpt>
      <trkpt lat="47.77329" lon="-3.32406">
        <ele>9.27</ele>
        <time>2016-05-25T13:39:50Z</time>
      </trkpt>
      <trkpt lat="47.77329" lon="-3.32407">
        <ele>9.27</ele>
        <time>2016-05-25T13:39:53Z</time>
      </trkpt>
      <trkpt lat="47.77319" lon="-3.32415">
        <ele>8.79</ele>
        <time>2016-05-25T13:40:11Z</time>
      </trkpt>
      <trkpt lat="47.77312" lon="-3.32415">
        <ele>8.79</ele>
        <time>2016-05-25T13:40:35Z</time>
      </trkpt>
      <trkpt lat="47.7729" lon="-3.32424">
        <ele>8.31</ele>
        <time>2016-05-25T13:40:54Z</time>
      </trkpt>
      <trkpt lat="47.77269" lon="-3.3244">
        <ele>8.31</ele>
        <time>2016-05-25T13:41:17Z</time>
      </trkpt>
      <trkpt lat="47.77244" lon="-3.32445">
        <ele>9.27</ele>
        <time>2016-05-25T13:41:39Z</time>
      </trkpt>
      <trkpt lat="47.77227" lon="-3.3244">
        <ele>8.79</ele>
        <time>2016-05-25T13:41:58Z</time>
      </trkpt>
      <trkpt lat="47.77211" lon="-3.32423">
        <ele>8.79</ele>
        <time>2016-05-25T13:42:16Z</time>
      </trkpt>
      <trkpt lat="47.77206" lon="-3.32419">
        <ele>8.79</ele>
        <time>2016-05-25T13:42:30Z</time>
      </trkpt>
      <trkpt lat="47.772" lon="-3.32412">
        <ele>8.79</ele>
        <time>2016-05-25T13:42:51Z</time>
      </trkpt>
      <trkpt lat="47.77188" lon="-3.32396">
        <ele>8.79</ele>
        <time>2016-05-25T13:43:10Z</time>
      </trkpt>
      <trkpt lat="47.77168" lon="-3.32384">
        <ele>7.35</ele>
        <time>2016-05-25T13:43:25Z</time>
      </trkpt>
      <trkpt lat="47.77157" lon="-3.32372">
        <ele>8.31</ele>
        <time>2016-05-25T13:43:41Z</time>
      </trkpt>
      <trkpt lat="47.77152" lon="-3.32371">
        <ele>8.31</ele>
        <time>2016-05-25T13:43:47Z</time>
      </trkpt>
      <trkpt lat="47.77136" lon="-3.32367">
        <ele>8.31</ele>
        <time>2016-05-25T13:44:05Z</time>
      </trkpt>
      <trkpt lat="47.77122" lon="-3.32357">
        <ele>8.31</ele>
        <time>2016-05-25T13:44:20Z</time>
      </trkpt>
      <trkpt lat="47.77107" lon="-3.32344">
        <ele>8.31</ele>
        <time>2016-05-25T13:44:39Z</time>
      </trkpt>
      <trkpt lat="47.77092" lon="-3.32336">
        <ele>7.83</ele>
        <time>2016-05-25T13:44:54Z</time>
      </trkpt>
      <trkpt lat="47.77075" lon="-3.32334">
        <ele>8.31</ele>
        <time>2016-05-25T13:45:09Z</time>
      </trkpt>
      <trkpt lat="47.77059" lon="-3.32344">
        <ele>8.31</ele>
        <time>2016-05-25T13:45:26Z</time>
      </trkpt>
      <trkpt lat="47.77053" lon="-3.32369">
        <ele>8.31</ele>
        <time>2016-05-25T13:45:46Z</time>
      </trkpt>
      <trkpt lat="47.7705" lon="-3.32376">
        <ele>8.31</ele>
        <time>2016-05-25T13:45:53Z</time>
      </trkpt>
      <trkpt lat="47.77035" lon="-3.32404">
        <ele>8.31</ele>
        <time>2016-05-25T13:46:12Z</time>
      </trkpt>
      <trkpt lat="47.77034" lon="-3.32405">
        <ele>8.31</ele>
        <time>2016-05-25T13:46:13Z</time>
      </trkpt>
      <trkpt lat="47.77015" lon="-3.32419">
        <ele>8.31</ele>
        <time>2016-05-25T13:46:32Z</time>
      </trkpt>
      <trkpt lat="47.77002" lon="-3.32425">
        <ele>8.31</ele>
        <time>2016-05-25T13:46:48Z</time>
      </trkpt>
      <trkpt lat="47.76986" lon="-3.32428">
        <ele>8.31</ele>
        <time>2016-05-25T13:47:05Z</time>
      </trkpt>
      <trkpt lat="47.76965" lon="-3.32432">
        <ele>8.31</ele>
        <time>2016-05-25T13:47:26Z</time>
      </trkpt>
      <trkpt lat="47.76945" lon="-3.32449">
        <ele>8.31</ele>
        <time>2016-05-25T13:47:49Z</time>
      </trkpt>
      <trkpt lat="47.76943" lon="-3.32463">
        <ele>8.31</ele>
        <time>2016-05-25T13:48:09Z</time>
      </trkpt>
      <trkpt lat="47.76929" lon="-3.32462">
        <ele>8.31</ele>
        <time>2016-05-25T13:48:27Z</time>
      </trkpt>
      <trkpt lat="47.76914" lon="-3.32469">
        <ele>8.31</ele>
        <time>2016-05-25T13:48:47Z</time>
      </trkpt>
      <trkpt lat="47.76906" lon="-3.32473">
        <ele>7.83</ele>
        <time>2016-05-25T13:48:58Z</time>
      </trkpt>
      <trkpt lat="47.76889" lon="-3.3247">
        <ele>8.31</ele>
        <time>2016-05-25T13:49:17Z</time>
      </trkpt>
      <trkpt lat="47.76863" lon="-3.32469">
        <ele>7.83</ele>
        <time>2016-05-25T13:49:38Z</time>
      </trkpt>
      <trkpt lat="47.76848" lon="-3.32486">
        <ele>8.79</ele>
        <time>2016-05-25T13:49:54Z</time>
      </trkpt>
      <trkpt lat="47.76845" lon="-3.32512">
        <ele>7.35</ele>
        <time>2016-05-25T13:50:12Z</time>
      </trkpt>
      <trkpt lat="47.76843" lon="-3.32516">
        <ele>7.83</ele>
        <time>2016-05-25T13:50:31Z</time>
      </trkpt>
      <trkpt lat="47.76843" lon="-3.32518">
        <ele>7.35</ele>
        <time>2016-05-25T13:50:54Z</time>
      </trkpt>
      <trkpt lat="47.76845" lon="-3.32517">
        <ele>8.79</ele>
        <time>2016-05-25T13:51:04Z</time>
      </trkpt>
      <trkpt lat="47.76845" lon="-3.3252">
        <ele>7.35</ele>
        <time>2016-05-25T13:51:24Z</time>
      </trkpt>
      <trkpt lat="47.76843" lon="-3.32522">
        <ele>7.35</ele>
        <time>2016-05-25T13:51:44Z</time>
      </trkpt>
      <trkpt lat="47.76843" lon="-3.32522">
        <ele>7.35</ele>
        <time>2016-05-25T13:52:09Z</time>
      </trkpt>
      <trkpt lat="47.76841" lon="-3.32517">
        <ele>7.35</ele>
        <time>2016-05-25T13:52:35Z</time>
      </trkpt>
      <trkpt lat="47.76848" lon="-3.3252">
        <ele>7.35</ele>
        <time>2016-05-25T13:53:09Z</time>
      </trkpt>
      <trkpt lat="47.76845" lon="-3.32517">
        <ele>6.87</ele>
        <time>2016-05-25T13:53:36Z</time>
      </trkpt>
      <trkpt lat="47.76842" lon="-3.32518">
        <ele>7.35</ele>
        <time>2016-05-25T13:53:59Z</time>
      </trkpt>
      <trkpt lat="47.76841" lon="-3.3252">
        <ele>6.87</ele>
        <time>2016-05-25T13:54:25Z</time>
      </trkpt>
      <trkpt lat="47.76843" lon="-3.32527">
        <ele>6.87</ele>
        <time>2016-05-25T13:54:49Z</time>
      </trkpt>
      <trkpt lat="47.7684" lon="-3.32534">
        <ele>6.87</ele>
        <time>2016-05-25T13:55:06Z</time>
      </trkpt>
      <trkpt lat="47.76829" lon="-3.32548">
        <ele>6.87</ele>
        <time>2016-05-25T13:55:23Z</time>
      </trkpt>
      <trkpt lat="47.76814" lon="-3.32558">
        <ele>6.87</ele>
        <time>2016-05-25T13:55:40Z</time>
      </trkpt>
      <trkpt lat="47.76801" lon="-3.32567">
        <ele>6.87</ele>
        <time>2016-05-25T13:55:56Z</time>
      </trkpt>
      <trkpt lat="47.76788" lon="-3.3257">
        <ele>6.87</ele>
        <time>2016-05-25T13:56:13Z</time>
      </trkpt>
      <trkpt lat="47.7677" lon="-3.32573">
        <ele>6.87</ele>
        <time>2016-05-25T13:56:34Z</time>
      </trkpt>
      <trkpt lat="47.76751" lon="-3.3258">
        <ele>7.35</ele>
        <time>2016-05-25T13:56:53Z</time>
      </trkpt>
      <trkpt lat="47.76732" lon="-3.32586">
        <ele>7.35</ele>
        <time>2016-05-25T13:57:10Z</time>
      </trkpt>
      <trkpt lat="47.76719" lon="-3.3259">
        <ele>7.35</ele>
        <time>2016-05-25T13:57:24Z</time>
      </trkpt>
      <trkpt lat="47.76707" lon="-3.32578">
        <ele>7.35</ele>
        <time>2016-05-25T13:57:41Z</time>
      </trkpt>
      <trkpt lat="47.76701" lon="-3.32572">
        <ele>6.87</ele>
        <time>2016-05-25T13:57:56Z</time>
      </trkpt>
      <trkpt lat="47.76693" lon="-3.32559">
        <ele>6.87</ele>
        <time>2016-05-25T13:58:11Z</time>
      </trkpt>
      <trkpt lat="47.76689" lon="-3.32558">
        <ele>6.87</ele>
        <time>2016-05-25T13:58:15Z</time>
      </trkpt>
      <trkpt lat="47.76674" lon="-3.32557">
        <ele>6.39</ele>
        <time>2016-05-25T13:58:29Z</time>
      </trkpt>
      <trkpt lat="47.76671" lon="-3.32572">
        <ele>6.39</ele>
        <time>2016-05-25T13:58:43Z</time>
      </trkpt>
      <trkpt lat="47.76667" lon="-3.32588">
        <ele>6.39</ele>
        <time>2016-05-25T13:59:00Z</time>
      </trkpt>
      <trkpt lat="47.76663" lon="-3.32607">
        <ele>6.39</ele>
        <time>2016-05-25T13:59:13Z</time>
      </trkpt>
      <trkpt lat="47.76659" lon="-3.32621">
        <ele>6.39</ele>
        <time>2016-05-25T13:59:25Z</time>
      </trkpt>
      <trkpt lat="47.76656" lon="-3.32621">
        <ele>7.83</ele>
        <time>2016-05-25T13:59:28Z</time>
      </trkpt>
      <trkpt lat="47.76647" lon="-3.32639">
        <ele>7.83</ele>
        <time>2016-05-25T13:59:41Z</time>
      </trkpt>
      <trkpt lat="47.7664" lon="-3.32659">
        <ele>7.83</ele>
        <time>2016-05-25T14:00:00Z</time>
      </trkpt>
      <trkpt lat="47.76633" lon="-3.3267">
        <ele>8.31</ele>
        <time>2016-05-25T14:00:13Z</time>
      </trkpt>
      <trkpt lat="47.76629" lon="-3.32686">
        <ele>8.31</ele>
        <time>2016-05-25T14:00:27Z</time>
      </trkpt>
      <trkpt lat="47.7663" lon="-3.32706">
        <ele>7.83</ele>
        <time>2016-05-25T14:00:41Z</time>
      </trkpt>
      <trkpt lat="47.76623" lon="-3.32719">
        <ele>7.83</ele>
        <time>2016-05-25T14:00:56Z</time>
      </trkpt>
      <trkpt lat="47.76618" lon="-3.32726">
        <ele>8.79</ele>
        <time>2016-05-25T14:01:10Z</time>
      </trkpt>
      <trkpt lat="47.7662" lon="-3.32728">
        <ele>8.31</ele>
        <time>2016-05-25T14:01:26Z</time>
      </trkpt>
      <trkpt lat="47.76619" lon="-3.32728">
        <ele>8.79</ele>
        <time>2016-05-25T14:01:28Z</time>
      </trkpt>
      <trkpt lat="47.76617" lon="-3.32726">
        <ele>8.79</ele>
        <time>2016-05-25T14:01:30Z</time>
      </trkpt>
      <trkpt lat="47.76612" lon="-3.32726">
        <ele>9.27</ele>
        <time>2016-05-25T14:01:35Z</time>
      </trkpt>
      <trkpt lat="47.76608" lon="-3.32741">
        <ele>9.27</ele>
        <time>2016-05-25T14:01:48Z</time>
      </trkpt>
      <trkpt lat="47.76609" lon="-3.3273">
        <ele>8.79</ele>
        <time>2016-05-25T14:02:00Z</time>
      </trkpt>
      <trkpt lat="47.76606" lon="-3.32727">
        <ele>9.27</ele>
        <time>2016-05-25T14:02:19Z</time>
      </trkpt>
      <trkpt lat="47.76607" lon="-3.3272">
        <ele>8.31</ele>
        <time>2016-05-25T14:02:32Z</time>
      </trkpt>
      <trkpt lat="47.76605" lon="-3.32721">
        <ele>8.79</ele>
        <time>2016-05-25T14:02:57Z</time>
      </trkpt>
      <trkpt lat="47.76608" lon="-3.32725">
        <ele>9.27</ele>
        <time>2016-05-25T14:03:04Z</time>
      </trkpt>
      <trkpt lat="47.76614" lon="-3.32705">
        <ele>8.79</ele>
        <time>2016-05-25T14:03:21Z</time>
      </trkpt>
      <trkpt lat="47.76622" lon="-3.32679">
        <ele>8.31</ele>
        <time>2016-05-25T14:03:40Z</time>
      </trkpt>
      <trkpt lat="47.76622" lon="-3.32662">
        <ele>8.31</ele>
        <time>2016-05-25T14:03:52Z</time>
      </trkpt>
      <trkpt lat="47.76623" lon="-3.32648">
        <ele>8.31</ele>
        <time>2016-05-25T14:04:05Z</time>
      </trkpt>
      <trkpt lat="47.76632" lon="-3.3262">
        <ele>7.83</ele>
        <time>2016-05-25T14:04:25Z</time>
      </trkpt>
      <trkpt lat="47.76637" lon="-3.32603">
        <ele>6.87</ele>
        <time>2016-05-25T14:04:37Z</time>
      </trkpt>
      <trkpt lat="47.76644" lon="-3.32576">
        <ele>6.87</ele>
        <time>2016-05-25T14:04:56Z</time>
      </trkpt>
      <trkpt lat="47.76645" lon="-3.32571">
        <ele>6.39</ele>
        <time>2016-05-25T14:05:00Z</time>
      </trkpt>
      <trkpt lat="47.76646" lon="-3.32566">
        <ele>5.42</ele>
        <time>2016-05-25T14:05:04Z</time>
      </trkpt>
      <trkpt lat="47.76652" lon="-3.32547">
        <ele>6.87</ele>
        <time>2016-05-25T14:05:18Z</time>
      </trkpt>
      <trkpt lat="47.76657" lon="-3.32521">
        <ele>7.35</ele>
        <time>2016-05-25T14:05:38Z</time>
      </trkpt>
      <trkpt lat="47.76656" lon="-3.32515">
        <ele>7.35</ele>
        <time>2016-05-25T14:05:47Z</time>
      </trkpt>
      <trkpt lat="47.76652" lon="-3.32507">
        <ele>6.87</ele>
        <time>2016-05-25T14:05:54Z</time>
      </trkpt>
      <trkpt lat="47.76637" lon="-3.32494">
        <ele>6.39</ele>
        <time>2016-05-25T14:06:11Z</time>
      </trkpt>
      <trkpt lat="47.76621" lon="-3.3248">
        <ele>6.87</ele>
        <time>2016-05-25T14:06:28Z</time>
      </trkpt>
      <trkpt lat="47.76604" lon="-3.32465">
        <ele>6.39</ele>
        <time>2016-05-25T14:06:45Z</time>
      </trkpt>
      <trkpt lat="47.76584" lon="-3.32452">
        <ele>6.39</ele>
        <time>2016-05-25T14:07:01Z</time>
      </trkpt>
      <trkpt lat="47.76568" lon="-3.32456">
        <ele>5.91</ele>
        <time>2016-05-25T14:07:18Z</time>
      </trkpt>
      <trkpt lat="47.76546" lon="-3.32465">
        <ele>6.39</ele>
        <time>2016-05-25T14:07:39Z</time>
      </trkpt>
      <trkpt lat="47.76519" lon="-3.32467">
        <ele>5.91</ele>
        <time>2016-05-25T14:08:01Z</time>
      </trkpt>
      <trkpt lat="47.76503" lon="-3.32469">
        <ele>7.35</ele>
        <time>2016-05-25T14:08:21Z</time>
      </trkpt>
      <trkpt lat="47.76483" lon="-3.32468">
        <ele>8.31</ele>
        <time>2016-05-25T14:08:43Z</time>
      </trkpt>
      <trkpt lat="47.76458" lon="-3.32465">
        <ele>8.79</ele>
        <time>2016-05-25T14:09:06Z</time>
      </trkpt>
      <trkpt lat="47.76429" lon="-3.3246">
        <ele>9.27</ele>
        <time>2016-05-25T14:09:31Z</time>
      </trkpt>
      <trkpt lat="47.76408" lon="-3.32455">
        <ele>9.75</ele>
        <time>2016-05-25T14:09:54Z</time>
      </trkpt>
      <trkpt lat="47.7639" lon="-3.32461">
        <ele>11.19</ele>
        <time>2016-05-25T14:10:13Z</time>
      </trkpt>
      <trkpt lat="47.76376" lon="-3.32469">
        <ele>11.67</ele>
        <time>2016-05-25T14:10:29Z</time>
      </trkpt>
      <trkpt lat="47.76361" lon="-3.32476">
        <ele>12.15</ele>
        <time>2016-05-25T14:10:46Z</time>
      </trkpt>
      <trkpt lat="47.76338" lon="-3.32488">
        <ele>11.67</ele>
        <time>2016-05-25T14:11:09Z</time>
      </trkpt>
      <trkpt lat="47.76319" lon="-3.32503">
        <ele>11.19</ele>
        <time>2016-05-25T14:11:28Z</time>
      </trkpt>
      <trkpt lat="47.76298" lon="-3.32515">
        <ele>9.75</ele>
        <time>2016-05-25T14:11:47Z</time>
      </trkpt>
      <trkpt lat="47.76278" lon="-3.32532">
        <ele>8.31</ele>
        <time>2016-05-25T14:12:08Z</time>
      </trkpt>
      <trkpt lat="47.76254" lon="-3.32531">
        <ele>7.83</ele>
        <time>2016-05-25T14:12:32Z</time>
      </trkpt>
      <trkpt lat="47.76236" lon="-3.32522">
        <ele>7.35</ele>
        <time>2016-05-25T14:12:51Z</time>
      </trkpt>
      <trkpt lat="47.76234" lon="-3.32518">
        <ele>7.83</ele>
        <time>2016-05-25T14:12:56Z</time>
      </trkpt>
      <trkpt lat="47.76231" lon="-3.32495">
        <ele>7.35</ele>
        <time>2016-05-25T14:13:13Z</time>
      </trkpt>
      <trkpt lat="47.7623" lon="-3.3248">
        <ele>7.35</ele>
        <time>2016-05-25T14:13:30Z</time>
      </trkpt>
      <trkpt lat="47.76227" lon="-3.32474">
        <ele>7.35</ele>
        <time>2016-05-25T14:13:51Z</time>
      </trkpt>
      <trkpt lat="47.76231" lon="-3.32479">
        <ele>7.35</ele>
        <time>2016-05-25T14:14:06Z</time>
      </trkpt>
      <trkpt lat="47.76233" lon="-3.32476">
        <ele>5.91</ele>
        <time>2016-05-25T14:14:09Z</time>
      </trkpt>
      <trkpt lat="47.76233" lon="-3.32474">
        <ele>6.87</ele>
        <time>2016-05-25T14:14:11Z</time>
      </trkpt>
      <trkpt lat="47.76232" lon="-3.32474">
        <ele>7.35</ele>
        <time>2016-05-25T14:14:40Z</time>
      </trkpt>
      <trkpt lat="47.76229" lon="-3.3247">
        <ele>6.87</ele>
        <time>2016-05-25T14:15:13Z</time>
      </trkpt>
      <trkpt lat="47.76223" lon="-3.32459">
        <ele>6.87</ele>
        <time>2016-05-25T14:15:31Z</time>
      </trkpt>
      <trkpt lat="47.76219" lon="-3.32456">
        <ele>6.39</ele>
        <time>2016-05-25T14:15:35Z</time>
      </trkpt>
      <trkpt lat="47.76204" lon="-3.32459">
        <ele>6.87</ele>
        <time>2016-05-25T14:15:51Z</time>
      </trkpt>
      <trkpt lat="47.76197" lon="-3.32458">
        <ele>6.39</ele>
        <time>2016-05-25T14:15:58Z</time>
      </trkpt>
      <trkpt lat="47.76184" lon="-3.32454">
        <ele>6.39</ele>
        <time>2016-05-25T14:16:13Z</time>
      </trkpt>
      <trkpt lat="47.76182" lon="-3.32453">
        <ele>5.91</ele>
        <time>2016-05-25T14:16:16Z</time>
      </trkpt>
      <trkpt lat="47.76174" lon="-3.32447">
        <ele>5.42</ele>
        <time>2016-05-25T14:16:25Z</time>
      </trkpt>
      <trkpt lat="47.76168" lon="-3.32428">
        <ele>6.87</ele>
        <time>2016-05-25T14:16:39Z</time>
      </trkpt>
      <trkpt lat="47.76168" lon="-3.32419">
        <ele>6.87</ele>
        <time>2016-05-25T14:16:45Z</time>
      </trkpt>
      <trkpt lat="47.76166" lon="-3.32397">
        <ele>8.31</ele>
        <time>2016-05-25T14:17:02Z</time>
      </trkpt>
      <trkpt lat="47.76166" lon="-3.32367">
        <ele>8.79</ele>
        <time>2016-05-25T14:17:22Z</time>
      </trkpt>
      <trkpt lat="47.76164" lon="-3.32348">
        <ele>9.27</ele>
        <time>2016-05-25T14:17:37Z</time>
      </trkpt>
      <trkpt lat="47.76154" lon="-3.32332">
        <ele>7.35</ele>
        <time>2016-05-25T14:17:55Z</time>
      </trkpt>
      <trkpt lat="47.76136" lon="-3.32334">
        <ele>6.39</ele>
        <time>2016-05-25T14:18:17Z</time>
      </trkpt>
      <trkpt lat="47.76127" lon="-3.32342">
        <ele>9.27</ele>
        <time>2016-05-25T14:18:27Z</time>
      </trkpt>
      <trkpt lat="47.76119" lon="-3.32361">
        <ele>8.79</ele>
        <time>2016-05-25T14:18:43Z</time>
      </trkpt>
      <trkpt lat="47.7611" lon="-3.32379">
        <ele>7.35</ele>
        <time>2016-05-25T14:19:00Z</time>
      </trkpt>
      <trkpt lat="47.7611" lon="-3.3238">
        <ele>8.31</ele>
        <time>2016-05-25T14:19:01Z</time>
      </trkpt>
      <trkpt lat="47.76095" lon="-3.32385">
        <ele>8.79</ele>
        <time>2016-05-25T14:19:18Z</time>
      </trkpt>
      <trkpt lat="47.76078" lon="-3.32382">
        <ele>7.83</ele>
        <time>2016-05-25T14:19:37Z</time>
      </trkpt>
      <trkpt lat="47.76061" lon="-3.32376">
        <ele>7.83</ele>
        <time>2016-05-25T14:19:55Z</time>
      </trkpt>
      <trkpt lat="47.76046" lon="-3.32368">
        <ele>7.35</ele>
        <time>2016-05-25T14:20:13Z</time>
      </trkpt>
      <trkpt lat="47.76038" lon="-3.32376">
        <ele>6.87</ele>
        <time>2016-05-25T14:20:25Z</time>
      </trkpt>
      <trkpt lat="47.76027" lon="-3.32395">
        <ele>5.42</ele>
        <time>2016-05-25T14:20:43Z</time>
      </trkpt>
      <trkpt lat="47.76016" lon="-3.32411">
        <ele>6.39</ele>
        <time>2016-05-25T14:21:00Z</time>
      </trkpt>
      <trkpt lat="47.76003" lon="-3.32428">
        <ele>5.42</ele>
        <time>2016-05-25T14:21:17Z</time>
      </trkpt>
      <trkpt lat="47.76" lon="-3.32432">
        <ele>5.91</ele>
        <time>2016-05-25T14:21:33Z</time>
      </trkpt>
      <trkpt lat="47.75995" lon="-3.32438">
        <ele>6.87</ele>
        <time>2016-05-25T14:21:48Z</time>
      </trkpt>
      <trkpt lat="47.75995" lon="-3.32446">
        <ele>6.39</ele>
        <time>2016-05-25T14:21:54Z</time>
      </trkpt>
      <trkpt lat="47.75992" lon="-3.32467">
        <ele>5.91</ele>
        <time>2016-05-25T14:22:10Z</time>
      </trkpt>
      <trkpt lat="47.75981" lon="-3.32474">
        <ele>6.87</ele>
        <time>2016-05-25T14:22:25Z</time>
      </trkpt>
      <trkpt lat="47.75977" lon="-3.32477">
        <ele>6.87</ele>
        <time>2016-05-25T14:22:30Z</time>
      </trkpt>
      <trkpt lat="47.75973" lon="-3.32481">
        <ele>6.87</ele>
        <time>2016-05-25T14:22:36Z</time>
      </trkpt>
      <trkpt lat="47.75971" lon="-3.32485">
        <ele>6.39</ele>
        <time>2016-05-25T14:22:39Z</time>
      </trkpt>
      <trkpt lat="47.7597" lon="-3.32492">
        <ele>6.39</ele>
        <time>2016-05-25T14:22:43Z</time>
      </trkpt>
      <trkpt lat="47.75968" lon="-3.32502">
        <ele>6.39</ele>
        <time>2016-05-25T14:22:50Z</time>
      </trkpt>
      <trkpt lat="47.75963" lon="-3.32526">
        <ele>6.39</ele>
        <time>2016-05-25T14:23:08Z</time>
      </trkpt>
      <trkpt lat="47.75954" lon="-3.32561">
        <ele>5.91</ele>
        <time>2016-05-25T14:23:29Z</time>
      </trkpt>
      <trkpt lat="47.75954" lon="-3.32588">
        <ele>5.91</ele>
        <time>2016-05-25T14:23:47Z</time>
      </trkpt>
      <trkpt lat="47.75954" lon="-3.32592">
        <ele>5.91</ele>
        <time>2016-05-25T14:23:50Z</time>
      </trkpt>
      <trkpt lat="47.75958" lon="-3.3262">
        <ele>5.42</ele>
        <time>2016-05-25T14:24:07Z</time>
      </trkpt>
      <trkpt lat="47.75972" lon="-3.32633">
        <ele>5.42</ele>
        <time>2016-05-25T14:24:24Z</time>
      </trkpt>
      <trkpt lat="47.75982" lon="-3.32637">
        <ele>5.42</ele>
        <time>2016-05-25T14:24:34Z</time>
      </trkpt>
      <trkpt lat="47.76001" lon="-3.32645">
        <ele>4.94</ele>
        <time>2016-05-25T14:24:54Z</time>
      </trkpt>
      <trkpt lat="47.76018" lon="-3.32652">
        <ele>5.42</ele>
        <time>2016-05-25T14:25:10Z</time>
      </trkpt>
      <trkpt lat="47.76018" lon="-3.32653">
        <ele>5.42</ele>
        <time>2016-05-25T14:25:11Z</time>
      </trkpt>
      <trkpt lat="47.76036" lon="-3.3266">
        <ele>4.94</ele>
        <time>2016-05-25T14:25:28Z</time>
      </trkpt>
      <trkpt lat="47.76053" lon="-3.32659">
        <ele>5.42</ele>
        <time>2016-05-25T14:25:45Z</time>
      </trkpt>
      <trkpt lat="47.76072" lon="-3.32662">
        <ele>4.46</ele>
        <time>2016-05-25T14:26:03Z</time>
      </trkpt>
      <trkpt lat="47.76087" lon="-3.32668">
        <ele>4.94</ele>
        <time>2016-05-25T14:26:20Z</time>
      </trkpt>
      <trkpt lat="47.76106" lon="-3.32673">
        <ele>4.94</ele>
        <time>2016-05-25T14:26:39Z</time>
      </trkpt>
      <trkpt lat="47.76119" lon="-3.32685">
        <ele>5.91</ele>
        <time>2016-05-25T14:26:58Z</time>
      </trkpt>
      <trkpt lat="47.76127" lon="-3.32695">
        <ele>5.42</ele>
        <time>2016-05-25T14:27:07Z</time>
      </trkpt>
      <trkpt lat="47.76144" lon="-3.32713">
        <ele>7.83</ele>
        <time>2016-05-25T14:27:27Z</time>
      </trkpt>
      <trkpt lat="47.76157" lon="-3.32727">
        <ele>7.35</ele>
        <time>2016-05-25T14:27:44Z</time>
      </trkpt>
      <trkpt lat="47.76159" lon="-3.32736">
        <ele>8.79</ele>
        <time>2016-05-25T14:27:52Z</time>
      </trkpt>
      <trkpt lat="47.76174" lon="-3.32745">
        <ele>7.83</ele>
        <time>2016-05-25T14:28:10Z</time>
      </trkpt>
      <trkpt lat="47.76179" lon="-3.32751">
        <ele>8.31</ele>
        <time>2016-05-25T14:28:24Z</time>
      </trkpt>
      <trkpt lat="47.76181" lon="-3.32746">
        <ele>7.83</ele>
        <time>2016-05-25T14:28:45Z</time>
      </trkpt>
      <trkpt lat="47.76178" lon="-3.32755">
        <ele>8.79</ele>
        <time>2016-05-25T14:28:56Z</time>
      </trkpt>
      <trkpt lat="47.76173" lon="-3.32776">
        <ele>7.83</ele>
        <time>2016-05-25T14:29:14Z</time>
      </trkpt>
      <trkpt lat="47.76173" lon="-3.328">
        <ele>7.83</ele>
        <time>2016-05-25T14:29:33Z</time>
      </trkpt>
      <trkpt lat="47.76171" lon="-3.3282">
        <ele>7.83</ele>
        <time>2016-05-25T14:29:50Z</time>
      </trkpt>
      <trkpt lat="47.76168" lon="-3.32845">
        <ele>7.35</ele>
        <time>2016-05-25T14:30:06Z</time>
      </trkpt>
      <trkpt lat="47.76169" lon="-3.32863">
        <ele>6.87</ele>
        <time>2016-05-25T14:30:23Z</time>
      </trkpt>
      <trkpt lat="47.76158" lon="-3.32879">
        <ele>7.35</ele>
        <time>2016-05-25T14:30:40Z</time>
      </trkpt>
      <trkpt lat="47.76153" lon="-3.32886">
        <ele>7.83</ele>
        <time>2016-05-25T14:30:48Z</time>
      </trkpt>
      <trkpt lat="47.7614" lon="-3.32903">
        <ele>7.83</ele>
        <time>2016-05-25T14:31:05Z</time>
      </trkpt>
      <trkpt lat="47.76126" lon="-3.32916">
        <ele>8.31</ele>
        <time>2016-05-25T14:31:21Z</time>
      </trkpt>
      <trkpt lat="47.76111" lon="-3.3293">
        <ele>7.35</ele>
        <time>2016-05-25T14:31:40Z</time>
      </trkpt>
      <trkpt lat="47.76104" lon="-3.32962">
        <ele>7.83</ele>
        <time>2016-05-25T14:32:01Z</time>
      </trkpt>
      <trkpt lat="47.76101" lon="-3.32988">
        <ele>7.83</ele>
        <time>2016-05-25T14:32:21Z</time>
      </trkpt>
      <trkpt lat="47.76099" lon="-3.33019">
        <ele>7.83</ele>
        <time>2016-05-25T14:32:40Z</time>
      </trkpt>
      <trkpt lat="47.76094" lon="-3.33042">
        <ele>8.31</ele>
        <time>2016-05-25T14:32:59Z</time>
      </trkpt>
      <trkpt lat="47.76088" lon="-3.33066">
        <ele>8.31</ele>
        <time>2016-05-25T14:33:17Z</time>
      </trkpt>
      <trkpt lat="47.76091" lon="-3.33101">
        <ele>8.79</ele>
        <time>2016-05-25T14:33:37Z</time>
      </trkpt>
      <trkpt lat="47.76095" lon="-3.33115">
        <ele>9.27</ele>
        <time>2016-05-25T14:33:52Z</time>
      </trkpt>
      <trkpt lat="47.76098" lon="-3.33115">
        <ele>9.27</ele>
        <time>2016-05-25T14:34:07Z</time>
      </trkpt>
      <trkpt lat="47.76096" lon="-3.33118">
        <ele>9.27</ele>
        <time>2016-05-25T14:34:13Z</time>
      </trkpt>
      <trkpt lat="47.76093" lon="-3.33118">
        <ele>8.79</ele>
        <time>2016-05-25T14:34:16Z</time>
      </trkpt>
      <trkpt lat="47.76075" lon="-3.33116">
        <ele>8.31</ele>
        <time>2016-05-25T14:34:36Z</time>
      </trkpt>
      <trkpt lat="47.76068" lon="-3.33113">
        <ele>8.31</ele>
        <time>2016-05-25T14:34:43Z</time>
      </trkpt>
      <trkpt lat="47.7606" lon="-3.33115">
        <ele>7.83</ele>
        <time>2016-05-25T14:34:53Z</time>
      </trkpt>
      <trkpt lat="47.76055" lon="-3.33139">
        <ele>7.35</ele>
        <time>2016-05-25T14:35:11Z</time>
      </trkpt>
      <trkpt lat="47.76048" lon="-3.33168">
        <ele>6.39</ele>
        <time>2016-05-25T14:35:27Z</time>
      </trkpt>
      <trkpt lat="47.76042" lon="-3.33196">
        <ele>7.35</ele>
        <time>2016-05-25T14:35:47Z</time>
      </trkpt>
      <trkpt lat="47.76036" lon="-3.33214">
        <ele>6.87</ele>
        <time>2016-05-25T14:36:02Z</time>
      </trkpt>
      <trkpt lat="47.76034" lon="-3.33238">
        <ele>6.87</ele>
        <time>2016-05-25T14:36:20Z</time>
      </trkpt>
      <trkpt lat="47.76034" lon="-3.33262">
        <ele>6.87</ele>
        <time>2016-05-25T14:36:38Z</time>
      </trkpt>
      <trkpt lat="47.76036" lon="-3.33289">
        <ele>7.35</ele>
        <time>2016-05-25T14:36:56Z</time>
      </trkpt>
      <trkpt lat="47.76043" lon="-3.33317">
        <ele>8.31</ele>
        <time>2016-05-25T14:37:12Z</time>
      </trkpt>
      <trkpt lat="47.76052" lon="-3.33332">
        <ele>10.23</ele>
        <time>2016-05-25T14:37:30Z</time>
      </trkpt>
      <trkpt lat="47.76059" lon="-3.33344">
        <ele>10.23</ele>
        <time>2016-05-25T14:37:46Z</time>
      </trkpt>
      <trkpt lat="47.7607" lon="-3.33353">
        <ele>10.71</ele>
        <time>2016-05-25T14:38:06Z</time>
      </trkpt>
      <trkpt lat="47.76079" lon="-3.33378">
        <ele>11.67</ele>
        <time>2016-05-25T14:38:25Z</time>
      </trkpt>
      <trkpt lat="47.76083" lon="-3.33393">
        <ele>12.15</ele>
        <time>2016-05-25T14:38:44Z</time>
      </trkpt>
      <trkpt lat="47.76082" lon="-3.33411">
        <ele>12.63</ele>
        <time>2016-05-25T14:39:04Z</time>
      </trkpt>
      <trkpt lat="47.76087" lon="-3.33445">
        <ele>14.08</ele>
        <time>2016-05-25T14:39:24Z</time>
      </trkpt>
      <trkpt lat="47.76088" lon="-3.33453">
        <ele>14.08</ele>
        <time>2016-05-25T14:39:29Z</time>
      </trkpt>
      <trkpt lat="47.76088" lon="-3.3347">
        <ele>15.04</ele>
        <time>2016-05-25T14:39:44Z</time>
      </trkpt>
      <trkpt lat="47.7609" lon="-3.33493">
        <ele>15.04</ele>
        <time>2016-05-25T14:40:04Z</time>
      </trkpt>
      <trkpt lat="47.7609" lon="-3.33496">
        <ele>16</ele>
        <time>2016-05-25T14:40:07Z</time>
      </trkpt>
      <trkpt lat="47.76091" lon="-3.3352">
        <ele>15.52</ele>
        <time>2016-05-25T14:40:23Z</time>
      </trkpt>
      <trkpt lat="47.76091" lon="-3.33537">
        <ele>15.52</ele>
        <time>2016-05-25T14:40:38Z</time>
      </trkpt>
      <trkpt lat="47.76092" lon="-3.33541">
        <ele>16</ele>
        <time>2016-05-25T14:40:41Z</time>
      </trkpt>
      <trkpt lat="47.76087" lon="-3.33578">
        <ele>17.44</ele>
        <time>2016-05-25T14:41:04Z</time>
      </trkpt>
      <trkpt lat="47.76073" lon="-3.33599">
        <ele>17.92</ele>
        <time>2016-05-25T14:41:26Z</time>
      </trkpt>
      <trkpt lat="47.76053" lon="-3.33602">
        <ele>17.92</ele>
        <time>2016-05-25T14:41:48Z</time>
      </trkpt>
      <trkpt lat="47.76048" lon="-3.33601">
        <ele>17.92</ele>
        <time>2016-05-25T14:41:53Z</time>
      </trkpt>
      <trkpt lat="47.76036" lon="-3.33614">
        <ele>18.4</ele>
        <time>2016-05-25T14:42:10Z</time>
      </trkpt>
      <trkpt lat="47.76031" lon="-3.33627">
        <ele>17.92</ele>
        <time>2016-05-25T14:42:26Z</time>
      </trkpt>
      <trkpt lat="47.76021" lon="-3.33646">
        <ele>17.44</ele>
        <time>2016-05-25T14:42:44Z</time>
      </trkpt>
      <trkpt lat="47.76017" lon="-3.33655">
        <ele>18.4</ele>
        <time>2016-05-25T14:42:50Z</time>
      </trkpt>
      <trkpt lat="47.76017" lon="-3.33674">
        <ele>17.92</ele>
        <time>2016-05-25T14:43:06Z</time>
      </trkpt>
      <trkpt lat="47.76013" lon="-3.33688">
        <ele>17.44</ele>
        <time>2016-05-25T14:43:21Z</time>
      </trkpt>
      <trkpt lat="47.76015" lon="-3.33698">
        <ele>17.92</ele>
        <time>2016-05-25T14:43:39Z</time>
      </trkpt>
      <trkpt lat="47.76016" lon="-3.33696">
        <ele>11.67</ele>
        <time>2016-05-25T14:44:01Z</time>
      </trkpt>
      <trkpt lat="47.76017" lon="-3.33695">
        <ele>16.96</ele>
        <time>2016-05-25T14:44:02Z</time>
      </trkpt>
      <trkpt lat="47.76015" lon="-3.33684">
        <ele>20.81</ele>
        <time>2016-05-25T14:44:18Z</time>
      </trkpt>
      <trkpt lat="47.76014" lon="-3.33682">
        <ele>14.56</ele>
        <time>2016-05-25T14:44:21Z</time>
      </trkpt>
      <trkpt lat="47.76013" lon="-3.33682">
        <ele>21.77</ele>
        <time>2016-05-25T14:44:22Z</time>
      </trkpt>
      <trkpt lat="47.76013" lon="-3.33686">
        <ele>17.92</ele>
        <time>2016-05-25T14:44:23Z</time>
      </trkpt>
      <trkpt lat="47.76013" lon="-3.33704">
        <ele>17.92</ele>
        <time>2016-05-25T14:44:49Z</time>
      </trkpt>
      <trkpt lat="47.76016" lon="-3.33702">
        <ele>14.08</ele>
        <time>2016-05-25T14:45:05Z</time>
      </trkpt>
      <trkpt lat="47.76017" lon="-3.33702">
        <ele>21.77</ele>
        <time>2016-05-25T14:45:06Z</time>
      </trkpt>
      <trkpt lat="47.76017" lon="-3.33702">
        <ele>17.92</ele>
        <time>2016-05-25T14:45:08Z</time>
      </trkpt>
      <trkpt lat="47.76017" lon="-3.33702">
        <ele>17.92</ele>
        <time>2016-05-25T14:45:09Z</time>
      </trkpt>
      <trkpt lat="47.76016" lon="-3.33701">
        <ele>18.88</ele>
        <time>2016-05-25T14:45:25Z</time>
      </trkpt>
      <trkpt lat="47.76015" lon="-3.33701">
        <ele>20.81</ele>
        <time>2016-05-25T14:45:40Z</time>
      </trkpt>
      <trkpt lat="47.76012" lon="-3.33696">
        <ele>16</ele>
        <time>2016-05-25T14:45:41Z</time>
      </trkpt>
      <trkpt lat="47.76013" lon="-3.33695">
        <ele>12.63</ele>
        <time>2016-05-25T14:45:42Z</time>
      </trkpt>
      <trkpt lat="47.76012" lon="-3.33696">
        <ele>8.79</ele>
        <time>2016-05-25T14:45:44Z</time>
      </trkpt>
      <trkpt lat="47.7601" lon="-3.33695">
        <ele>3.98</ele>
        <time>2016-05-25T14:45:47Z</time>
      </trkpt>
      <trkpt lat="47.76015" lon="-3.33697">
        <ele>0.62</ele>
        <time>2016-05-25T14:45:52Z</time>
      </trkpt>
      <trkpt lat="47.76017" lon="-3.33701">
        <ele>2.54</ele>
        <time>2016-05-25T14:45:59Z</time>
      </trkpt>
      <trkpt lat="47.7602" lon="-3.337">
        <ele>6.39</ele>
        <time>2016-05-25T14:46:11Z</time>
      </trkpt>
      <trkpt lat="47.7602" lon="-3.33701">
        <ele>7.83</ele>
        <time>2016-05-25T14:46:20Z</time>
      </trkpt>
    </trkseg>
  </trk>
</gpx>